Time;durP1;ratioP1;P1;durP2;ratioP2;P2;SDS_P1;SDS_P2;PMS_P1;PMS_P2;Temp;Humidity;BMP_temperature;BMP_pressure;BME280_temperature;BME280_humidity;BME280_pressure;Samples;Min_cycle;Max_cycle;Signal;HPM_P1;HPM_P2
2023/09/09 00:01:44;;;;;;;3.33;3.13;;;;;;;;;;5034989;28;20025;-27
2023/09/09 00:04:10;;;;;;;3.67;3.38;;;;;;;;;;5034197;28;20121;-27
2023/09/09 00:06:36;;;;;;;3.35;3.05;;;;;;;;;;5035258;28;20080;-25
2023/09/09 00:09:04;;;;;;;4.03;3.70;;;;;;;;;;5035105;28;20036;-27
2023/09/09 00:11:31;;;;;;;5.25;3.00;;;;;;;;;;5034639;28;20104;-27
2023/09/09 00:13:57;;;;;;;5.75;3.00;;;;;;;;;;5034589;28;20385;-28
2023/09/09 00:16:23;;;;;;;2.85;2.58;;;;;;;;;;5034594;28;20028;-25
2023/09/09 00:18:49;;;;;;;4.03;2.72;;;;;;;;;;5034814;28;20083;-26
2023/09/09 00:21:15;;;;;;;5.70;3.35;;;;;;;;;;5034483;28;20498;-29
2023/09/09 00:23:41;;;;;;;4.07;3.65;;;;;;;;;;5034477;28;20033;-25
2023/09/09 00:26:07;;;;;;;4.15;2.90;;;;;;;;;;5034440;28;20090;-26
2023/09/09 00:28:33;;;;;;;4.60;3.05;;;;;;;;;;5034678;28;20029;-29
2023/09/09 00:30:59;;;;;;;3.10;2.90;;;;;;;;;;5034450;28;20022;-27
2023/09/09 00:33:26;;;;;;;3.20;3.00;;;;;;;;;;5034293;28;20018;-27
2023/09/09 00:35:52;;;;;;;3.80;3.50;;;;;;;;;;5034352;28;20035;-27
2023/09/09 00:38:18;;;;;;;4.72;3.22;;;;;;;;;;5034341;28;20056;-25
2023/09/09 00:40:44;;;;;;;3.92;3.17;;;;;;;;;;5034327;28;20033;-28
2023/09/09 00:43:10;;;;;;;4.38;3.88;;;;;;;;;;5034285;28;20220;-27
2023/09/09 00:45:39;;;;;;;4.30;3.90;;;;;;;;;;5034574;28;20045;-28
2023/09/09 00:48:05;;;;;;;3.63;2.88;;;;;;;;;;5034152;28;20036;-28
2023/09/09 00:50:31;;;;;;;5.78;3.13;;;;;;;;;;5034556;28;20356;-25
2023/09/09 00:52:57;;;;;;;4.25;3.17;;;;;;;;;;5034403;28;20052;-30
2023/09/09 00:55:26;;;;;;;4.00;3.58;;;;;;;;;;5034269;28;20096;-29
2023/09/09 00:57:53;;;;;;;4.50;4.00;;;;;;;;;;5034465;28;20108;-28
2023/09/09 01:00:19;;;;;;;4.25;3.30;;;;;;;;;;5034200;28;20108;-27
2023/09/09 01:02:45;;;;;;;3.38;3.08;;;;;;;;;;5034367;28;20104;-29
2023/09/09 01:05:11;;;;;;;3.65;3.35;;;;;;;;;;5013434;28;20501;-28
2023/09/09 01:07:47;;;;;;;3.85;3.55;;;;;;;;;;5014351;28;20453;-30
2023/09/09 01:10:14;;;;;;;2.83;2.63;;;;;;;;;;5014934;28;20022;-27
2023/09/09 01:12:43;;;;;;;3.33;3.13;;;;;;;;;;5014855;28;20093;-28
2023/09/09 01:15:10;;;;;;;3.58;3.28;;;;;;;;;;5017744;28;20021;-28
2023/09/09 01:17:37;;;;;;;3.90;3.35;;;;;;;;;;5017976;28;20033;-29
2023/09/09 01:20:14;;;;;;;3.40;3.10;;;;;;;;;;5018236;28;20445;-28
2023/09/09 01:22:43;;;;;;;3.55;3.35;;;;;;;;;;5018137;28;20361;-28
2023/09/09 01:25:09;;;;;;;2.83;2.63;;;;;;;;;;5017776;28;20113;-29
2023/09/09 01:27:36;;;;;;;3.45;3.25;;;;;;;;;;5018004;28;20060;-26
2023/09/09 01:30:03;;;;;;;3.28;2.97;;;;;;;;;;5017746;28;20022;-28
2023/09/09 01:32:29;;;;;;;3.38;3.08;;;;;;;;;;5017615;28;20111;-26
2023/09/09 01:34:55;;;;;;;3.45;2.50;;;;;;;;;;5017682;28;20032;-25
2023/09/09 01:37:22;;;;;;;3.28;3.08;;;;;;;;;;5017610;28;20064;-26
2023/09/09 01:39:48;;;;;;;3.33;3.03;;;;;;;;;;5017598;28;20026;-28
2023/09/09 01:42:17;;;;;;;3.88;3.58;;;;;;;;;;5017479;28;20107;-27
2023/09/09 01:44:45;;;;;;;3.30;3.00;;;;;;;;;;5017761;28;20495;-27
2023/09/09 01:47:13;;;;;;;3.30;2.97;;;;;;;;;;5017626;28;20140;-28
2023/09/09 01:49:40;;;;;;;2.75;2.55;;;;;;;;;;5017323;28;20057;-26
2023/09/09 01:52:06;;;;;;;3.00;2.67;;;;;;;;;;5017762;28;20053;-29
2023/09/09 01:54:33;;;;;;;3.53;3.22;;;;;;;;;;5017589;28;20041;-28
2023/09/09 01:56:59;;;;;;;2.70;2.50;;;;;;;;;;5017287;28;20026;-28
2023/09/09 01:59:25;;;;;;;3.38;3.08;;;;;;;;;;5017487;28;20330;-27
2023/09/09 02:01:51;;;;;;;2.60;2.40;;;;;;;;;;5017322;28;20365;-26
2023/09/09 02:04:17;;;;;;;3.25;2.40;;;;;;;;;;5023301;28;20425;-26
2023/09/09 02:06:44;;;;;;;2.50;2.30;;;;;;;;;;5037280;28;20045;-25
2023/09/09 02:09:11;;;;;;;2.80;2.60;;;;;;;;;;5036693;28;20087;-25
2023/09/09 02:11:37;;;;;;;3.47;3.17;;;;;;;;;;5036994;28;20025;-27
2023/09/09 02:14:03;;;;;;;2.92;2.72;;;;;;;;;;5036613;28;20026;-28
2023/09/09 02:16:29;;;;;;;3.22;2.55;;;;;;;;;;5036924;28;20021;-28
2023/09/09 02:18:55;;;;;;;2.90;2.70;;;;;;;;;;5036616;28;20021;-28
2023/09/09 02:21:21;;;;;;;2.92;2.72;;;;;;;;;;5036786;28;20053;-25
2023/09/09 02:23:48;;;;;;;3.15;2.85;;;;;;;;;;5036440;28;20487;-25
2023/09/09 02:26:14;;;;;;;2.17;2.08;;;;;;;;;;5035859;28;20044;-27
2023/09/09 02:28:40;;;;;;;3.13;2.38;;;;;;;;;;5018913;28;20032;-26
2023/09/09 02:31:06;;;;;;;3.00;2.80;;;;;;;;;;5036612;28;20045;-27
2023/09/09 02:33:32;;;;;;;2.55;2.40;;;;;;;;;;5036243;28;20025;-28
2023/09/09 02:36:00;;;;;;;3.05;2.80;;;;;;;;;;5036273;28;20471;-29
2023/09/09 02:38:26;;;;;;;2.92;2.67;;;;;;;;;;5036956;28;20022;-30
2023/09/09 02:40:52;;;;;;;3.35;2.78;;;;;;;;;;5036165;28;20551;-29
2023/09/09 02:43:18;;;;;;;2.88;2.67;;;;;;;;;;5036069;28;20029;-28
2023/09/09 02:45:44;;;;;;;2.78;2.58;;;;;;;;;;5036091;28;20025;-29
2023/09/09 02:48:10;;;;;;;3.13;2.92;;;;;;;;;;5036297;28;20048;-28
2023/09/09 02:50:37;;;;;;;3.10;2.90;;;;;;;;;;5036035;28;20352;-27
2023/09/09 02:53:03;;;;;;;2.80;2.60;;;;;;;;;;5035896;28;20035;-27
2023/09/09 02:55:29;;;;;;;3.17;2.97;;;;;;;;;;5036144;28;20018;-27
2023/09/09 02:57:55;;;;;;;3.60;3.20;;;;;;;;;;5036127;28;20029;-26
2023/09/09 03:00:22;;;;;;;3.10;2.90;;;;;;;;;;5035827;28;20056;-26
2023/09/09 03:02:50;;;;;;;3.72;3.22;;;;;;;;;;5035967;28;20105;-28
2023/09/09 03:05:16;;;;;;;2.45;2.35;;;;;;;;;;5035617;28;20128;-27
2023/09/09 03:07:45;;;;;;;2.83;2.63;;;;;;;;;;5035584;28;20338;-28
2023/09/09 03:10:11;;;;;;;2.50;2.30;;;;;;;;;;5035881;28;20030;-28
2023/09/09 03:12:37;;;;;;;3.22;2.97;;;;;;;;;;5035521;28;20031;-26
2023/09/09 03:15:05;;;;;;;3.05;2.75;;;;;;;;;;5035836;28;20025;-26
2023/09/09 03:17:32;;;;;;;3.42;3.08;;;;;;;;;;5035699;28;20036;-28
2023/09/09 03:19:58;;;;;;;2.60;2.50;;;;;;;;;;5035431;28;20029;-28
2023/09/09 03:22:24;;;;;;;2.47;2.28;;;;;;;;;;5035343;28;20036;-27
2023/09/09 03:24:51;;;;;;;2.67;2.47;;;;;;;;;;5035356;28;20361;-30
2023/09/09 03:27:17;;;;;;;2.28;2.08;;;;;;;;;;5035203;28;20025;-26
2023/09/09 03:29:43;;;;;;;2.38;2.25;;;;;;;;;;5036039;28;20344;-28
2023/09/09 03:32:09;;;;;;;3.70;2.53;;;;;;;;;;5035194;28;20072;-28
2023/09/09 03:34:35;;;;;;;2.55;2.35;;;;;;;;;;5035177;28;20032;-28
2023/09/09 03:37:01;;;;;;;2.38;2.17;;;;;;;;;;5034642;28;20360;-27
2023/09/09 03:39:28;;;;;;;2.47;2.38;;;;;;;;;;5035291;28;20056;-28
2023/09/09 03:41:54;;;;;;;2.88;2.70;;;;;;;;;;5034895;28;20030;-26
2023/09/09 03:44:20;;;;;;;2.80;2.60;;;;;;;;;;5035276;28;20021;-25
2023/09/09 03:46:46;;;;;;;3.47;2.78;;;;;;;;;;5035242;28;20032;-25
2023/09/09 03:49:12;;;;;;;3.40;3.20;;;;;;;;;;5034921;28;20025;-27
2023/09/09 03:51:38;;;;;;;2.88;2.30;;;;;;;;;;5034906;28;20025;-29
2023/09/09 03:54:05;;;;;;;2.30;2.15;;;;;;;;;;5035072;28;20358;-26
2023/09/09 03:56:31;;;;;;;3.20;3.00;;;;;;;;;;5034741;28;20037;-27
2023/09/09 03:58:57;;;;;;;5.78;2.60;;;;;;;;;;5035042;28;20025;-27
2023/09/09 04:01:23;;;;;;;2.80;2.65;;;;;;;;;;5017377;28;20029;-27
2023/09/09 04:03:49;;;;;;;2.85;2.65;;;;;;;;;;5034502;28;20037;-25
2023/09/09 04:06:17;;;;;;;2.60;2.35;;;;;;;;;;5035019;28;20494;-25
2023/09/09 04:08:43;;;;;;;3.30;3.00;;;;;;;;;;5034610;28;20087;-26
2023/09/09 04:11:10;;;;;;;2.60;2.40;;;;;;;;;;5034612;28;20132;-26
2023/09/09 04:13:38;;;;;;;2.63;2.00;;;;;;;;;;5034519;28;20053;-27
2023/09/09 04:16:04;;;;;;;2.58;2.38;;;;;;;;;;5035133;28;20017;-27
2023/09/09 04:18:31;;;;;;;2.83;2.72;;;;;;;;;;5034844;28;20030;-26
2023/09/09 04:20:57;;;;;;;2.50;2.40;;;;;;;;;;5035090;28;20087;-25
2023/09/09 04:23:24;;;;;;;2.45;2.25;;;;;;;;;;5034677;28;20108;-28
2023/09/09 04:25:50;;;;;;;3.45;3.08;;;;;;;;;;5034456;28;20029;-27
2023/09/09 04:28:16;;;;;;;2.30;2.10;;;;;;;;;;5034420;28;20105;-28
2023/09/09 04:30:42;;;;;;;2.85;2.65;;;;;;;;;;5035196;28;20025;-29
2023/09/09 04:33:12;;;;;;;3.28;2.97;;;;;;;;;;5034397;28;20049;-28
2023/09/09 04:35:42;;;;;;;2.13;2.03;;;;;;;;;;5034402;28;20036;-26
2023/09/09 04:38:09;;;;;;;2.80;2.63;;;;;;;;;;5034691;28;20123;-28
2023/09/09 04:40:35;;;;;;;2.70;2.60;;;;;;;;;;5034656;28;20333;-28
2023/09/09 04:43:01;;;;;;;2.85;2.65;;;;;;;;;;5034427;28;20025;-28
2023/09/09 04:45:28;;;;;;;2.50;2.38;;;;;;;;;;5034334;28;20127;-26
2023/09/09 04:47:54;;;;;;;2.40;2.20;;;;;;;;;;5035014;28;20064;-27
2023/09/09 04:50:20;;;;;;;2.25;2.08;;;;;;;;;;5020517;28;20079;-27
2023/09/09 04:52:47;;;;;;;2.38;2.22;;;;;;;;;;5038121;28;20018;-28
2023/09/09 04:55:13;;;;;;;2.63;2.45;;;;;;;;;;5038462;28;20105;-28
2023/09/09 04:57:40;;;;;;;2.20;2.10;;;;;;;;;;5038404;28;20025;-25
2023/09/09 05:00:09;;;;;;;3.50;3.30;;;;;;;;;;5038111;28;20359;-27
2023/09/09 05:02:35;;;;;;;2.75;2.55;;;;;;;;;;5038230;28;20036;-27
2023/09/09 05:05:04;;;;;;;2.92;2.38;;;;;;;;;;5037931;28;20057;-28
2023/09/09 05:07:34;;;;;;;2.40;2.20;;;;;;;;;;5038139;28;20027;-29
2023/09/09 05:10:01;;;;;;;3.35;2.40;;;;;;;;;;5037905;28;20021;-26
2023/09/09 05:12:27;;;;;;;2.55;2.35;;;;;;;;;;5038076;28;20030;-29
2023/09/09 05:14:53;;;;;;;2.83;2.63;;;;;;;;;;5038558;28;20049;-28
2023/09/09 05:17:19;;;;;;;2.30;2.10;;;;;;;;;;5037755;28;20025;-29
2023/09/09 05:19:46;;;;;;;2.30;2.20;;;;;;;;;;5038002;28;20026;-26
2023/09/09 05:22:12;;;;;;;2.60;2.50;;;;;;;;;;5037603;28;20096;-27
2023/09/09 05:24:38;;;;;;;2.40;2.30;;;;;;;;;;5037628;28;20033;-28
2023/09/09 05:27:04;;;;;;;2.70;2.50;;;;;;;;;;5037521;28;20091;-27
2023/09/09 05:29:30;;;;;;;2.47;2.38;;;;;;;;;;5037552;28;20072;-27
2023/09/09 05:31:56;;;;;;;2.53;2.42;;;;;;;;;;5037422;28;20029;-27
2023/09/09 05:34:22;;;;;;;2.35;2.25;;;;;;;;;;5037999;28;20353;-29
2023/09/09 05:36:49;;;;;;;2.63;2.15;;;;;;;;;;5037688;28;20437;-28
2023/09/09 05:39:16;;;;;;;2.80;2.25;;;;;;;;;;5037354;28;20041;-26
2023/09/09 05:41:42;;;;;;;2.30;2.20;;;;;;;;;;5037318;28;20021;-27
2023/09/09 05:44:08;;;;;;;2.50;2.40;;;;;;;;;;5037237;28;20468;-26
2023/09/09 05:46:34;;;;;;;2.60;2.40;;;;;;;;;;5037227;28;20041;-27
2023/09/09 05:49:00;;;;;;;2.42;2.22;;;;;;;;;;5037401;28;20053;-29
2023/09/09 05:51:26;;;;;;;2.72;2.22;;;;;;;;;;5037170;28;20025;-29
2023/09/09 05:53:52;;;;;;;3.45;2.85;;;;;;;;;;5037055;28;20032;-28
2023/09/09 05:56:19;;;;;;;2.85;2.60;;;;;;;;;;5037333;28;20349;-27
2023/09/09 05:58:45;;;;;;;2.88;2.65;;;;;;;;;;5036985;28;20105;-27
2023/09/09 06:01:11;;;;;;;3.95;2.35;;;;;;;;;;5036203;28;20104;-25
2023/09/09 06:03:38;;;;;;;2.40;2.05;;;;;;;;;;5036652;28;20152;-26
2023/09/09 06:06:04;;;;;;;4.15;2.53;;;;;;;;;;5036934;28;20033;-26
2023/09/09 06:08:32;;;;;;;2.53;2.33;;;;;;;;;;5036757;28;20048;-27
2023/09/09 06:10:58;;;;;;;2.78;2.58;;;;;;;;;;5037289;28;20025;-26
2023/09/09 06:13:24;;;;;;;2.67;2.47;;;;;;;;;;5036629;28;20017;-29
2023/09/09 06:15:50;;;;;;;4.82;2.33;;;;;;;;;;5036961;28;20017;-28
2023/09/09 06:18:16;;;;;;;2.30;2.10;;;;;;;;;;5036922;28;20057;-28
2023/09/09 06:20:48;;;;;;;2.45;2.25;;;;;;;;;;5036853;28;20029;-28
2023/09/09 06:23:15;;;;;;;2.67;2.47;;;;;;;;;;5036425;28;20032;-28
2023/09/09 06:25:41;;;;;;;2.17;2.00;;;;;;;;;;5036457;28;20095;-27
2023/09/09 06:28:07;;;;;;;2.22;2.13;;;;;;;;;;5036368;28;20239;-28
2023/09/09 06:30:34;;;;;;;3.08;2.88;;;;;;;;;;5036743;28;20026;-26
2023/09/09 06:33:00;;;;;;;2.50;2.30;;;;;;;;;;5036268;28;20017;-28
2023/09/09 06:35:27;;;;;;;2.33;2.22;;;;;;;;;;5036396;28;20077;-27
2023/09/09 06:37:53;;;;;;;2.17;2.08;;;;;;;;;;5036547;28;20026;-26
2023/09/09 06:40:19;;;;;;;4.88;3.55;;;;;;;;;;5036279;28;20123;-29
2023/09/09 06:42:45;;;;;;;3.50;2.58;;;;;;;;;;5036057;28;20040;-28
2023/09/09 06:45:12;;;;;;;2.13;2.03;;;;;;;;;;5036152;28;20026;-29
2023/09/09 06:47:39;;;;;;;2.55;2.35;;;;;;;;;;5035941;28;20033;-29
2023/09/09 06:50:05;;;;;;;2.60;2.40;;;;;;;;;;5036288;28;20025;-28
2023/09/09 06:52:31;;;;;;;2.30;2.10;;;;;;;;;;5035927;28;20033;-26
2023/09/09 06:54:58;;;;;;;2.78;2.13;;;;;;;;;;5036221;28;20033;-29
2023/09/09 06:57:24;;;;;;;2.10;2.00;;;;;;;;;;5036163;28;20025;-26
2023/09/09 06:59:50;;;;;;;2.53;2.33;;;;;;;;;;5036142;28;20470;-27
2023/09/09 07:02:16;;;;;;;1.92;1.83;;;;;;;;;;5035750;28;20108;-26
2023/09/09 07:04:43;;;;;;;2.22;2.03;;;;;;;;;;5035685;28;20057;-26
2023/09/09 07:07:09;;;;;;;2.45;2.10;;;;;;;;;;5035912;28;20052;-25
2023/09/09 07:09:35;;;;;;;3.65;3.35;;;;;;;;;;5018281;28;20021;-28
2023/09/09 07:12:02;;;;;;;2.85;2.65;;;;;;;;;;5035632;28;20033;-27
2023/09/09 07:14:28;;;;;;;2.17;2.08;;;;;;;;;;5035580;28;20087;-27
2023/09/09 07:16:54;;;;;;;2.63;2.42;;;;;;;;;;5035549;28;20408;-29
2023/09/09 07:19:21;;;;;;;2.25;2.15;;;;;;;;;;5035459;28;20021;-29
2023/09/09 07:21:47;;;;;;;2.40;2.17;;;;;;;;;;5035617;28;20360;-27
2023/09/09 07:24:13;;;;;;;1.95;1.85;;;;;;;;;;5035948;28;20026;-26
2023/09/09 07:26:39;;;;;;;2.42;2.22;;;;;;;;;;5035629;28;20072;-26
2023/09/09 07:29:05;;;;;;;4.88;2.33;;;;;;;;;;5035231;28;20041;-28
2023/09/09 07:31:31;;;;;;;2.90;2.47;;;;;;;;;;5035279;28;20026;-28
2023/09/09 07:33:57;;;;;;;2.28;2.17;;;;;;;;;;5035174;28;20449;-28
2023/09/09 07:36:23;;;;;;;2.30;2.20;;;;;;;;;;5035459;28;20368;-27
2023/09/09 07:38:51;;;;;;;2.33;2.17;;;;;;;;;;5035374;28;20105;-29
2023/09/09 07:41:17;;;;;;;2.72;2.53;;;;;;;;;;5035386;28;20033;-29
2023/09/09 07:43:44;;;;;;;3.08;2.22;;;;;;;;;;5034976;28;20078;-29
2023/09/09 07:46:10;;;;;;;2.70;2.50;;;;;;;;;;5034976;28;20029;-26
2023/09/09 07:48:36;;;;;;;2.70;2.50;;;;;;;;;;5034933;28;20026;-27
2023/09/09 07:51:02;;;;;;;2.78;2.58;;;;;;;;;;5034897;28;20029;-30
2023/09/09 07:53:29;;;;;;;2.10;2.00;;;;;;;;;;5035093;28;20388;-28
2023/09/09 07:55:55;;;;;;;1.98;1.88;;;;;;;;;;5034878;28;20026;-29
2023/09/09 07:58:21;;;;;;;3.45;2.33;;;;;;;;;;5034834;28;20025;-27
2023/09/09 08:00:47;;;;;;;2.95;2.65;;;;;;;;;;5035048;28;20441;-27
2023/09/09 08:03:13;;;;;;;2.20;2.00;;;;;;;;;;5034982;28;20352;-28
2023/09/09 08:05:40;;;;;;;2.45;2.17;;;;;;;;;;5034629;28;20049;-26
2023/09/09 08:08:07;;;;;;;2.40;2.30;;;;;;;;;;5034680;28;20060;-27
2023/09/09 08:10:33;;;;;;;2.25;2.15;;;;;;;;;;5034620;28;20021;-25
2023/09/09 08:12:59;;;;;;;2.47;2.28;;;;;;;;;;5034842;28;20164;-25
2023/09/09 08:15:26;;;;;;;2.10;2.00;;;;;;;;;;5034644;28;20025;-27
2023/09/09 08:17:52;;;;;;;2.00;1.90;;;;;;;;;;5034556;28;20120;-30
2023/09/09 08:20:18;;;;;;;2.30;2.10;;;;;;;;;;5034573;28;20511;-29
2023/09/09 08:22:44;;;;;;;3.20;2.25;;;;;;;;;;5034576;28;20025;-28
2023/09/09 08:25:12;;;;;;;2.22;2.03;;;;;;;;;;5034170;28;20052;-27
2023/09/09 08:27:39;;;;;;;2.00;1.80;;;;;;;;;;5034736;28;20025;-30
2023/09/09 08:30:06;;;;;;;1.92;1.83;;;;;;;;;;5034795;28;20021;-28
2023/09/09 08:32:33;;;;;;;2.10;1.92;;;;;;;;;;5034635;28;20040;-26
2023/09/09 08:34:59;;;;;;;2.38;2.17;;;;;;;;;;5034693;28;20030;-28
2023/09/09 08:37:25;;;;;;;2.35;2.15;;;;;;;;;;5034384;28;20026;-27
2023/09/09 08:39:55;;;;;;;2.22;2.13;;;;;;;;;;5034917;28;20037;-28
2023/09/09 08:42:45;;;;;;;2.50;2.40;;;;;;;;;;5034301;28;20384;-28
2023/09/09 08:45:11;;;;;;;2.53;2.33;;;;;;;;;;5034666;28;20160;-27
2023/09/09 08:47:39;;;;;;;2.63;2.53;;;;;;;;;;5034526;28;20029;-30
2023/09/09 08:50:06;;;;;;;2.90;2.70;;;;;;;;;;5034297;28;20032;-28
2023/09/09 08:52:32;;;;;;;2.80;2.50;;;;;;;;;;5034251;28;20053;-29
2023/09/09 08:54:59;;;;;;;2.67;2.58;;;;;;;;;;5034270;28;20123;-25
2023/09/09 08:57:28;;;;;;;2.60;2.40;;;;;;;;;;5034290;28;20049;-29
2023/09/09 08:59:56;;;;;;;2.67;2.50;;;;;;;;;;5034122;28;20025;-26
2023/09/09 09:02:22;;;;;;;2.65;2.45;;;;;;;;;;5034139;28;20108;-26
2023/09/09 09:04:48;;;;;;;4.50;3.33;;;;;;;;;;5034114;28;20123;-26
2023/09/09 09:07:14;;;;;;;2.85;2.75;;;;;;;;;;5034069;28;20391;-26
2023/09/09 09:09:41;;;;;;;2.60;2.45;;;;;;;;;;5034101;28;20104;-28
2023/09/09 09:12:07;;;;;;;2.55;2.30;;;;;;;;;;5034293;28;20022;-28
2023/09/09 09:14:33;;;;;;;2.42;2.33;;;;;;;;;;5034361;28;20365;-28
2023/09/09 09:17:00;;;;;;;2.92;2.75;;;;;;;;;;5034350;28;20025;-28
2023/09/09 09:19:27;;;;;;;2.53;2.42;;;;;;;;;;5034057;28;20033;-28
2023/09/09 09:21:54;;;;;;;2.58;2.47;;;;;;;;;;5034147;28;20326;-29
2023/09/09 09:24:27;;;;;;;2.63;2.53;;;;;;;;;;5034020;28;20123;-29
2023/09/09 09:26:54;;;;;;;4.00;3.42;;;;;;;;;;5033890;28;20087;-24
2023/09/09 09:29:21;;;;;;;3.05;2.85;;;;;;;;;;5034141;28;20033;-28
2023/09/09 09:31:55;;;;;;;2.60;2.45;;;;;;;;;;5033823;28;20057;-29
2023/09/09 09:34:32;;;;;;;2.92;2.72;;;;;;;;;;5033975;28;20025;-28
2023/09/09 09:36:58;;;;;;;2.42;2.33;;;;;;;;;;5036912;28;20095;-28
2023/09/09 09:39:24;;;;;;;2.83;2.63;;;;;;;;;;5037674;28;20037;-26
2023/09/09 09:41:50;;;;;;;2.80;2.60;;;;;;;;;;5037258;28;20048;-24
2023/09/09 09:44:18;;;;;;;2.63;2.53;;;;;;;;;;5037312;28;20025;-27
2023/09/09 09:46:58;;;;;;;3.08;2.88;;;;;;;;;;5037499;28;20040;-26
2023/09/09 09:49:33;;;;;;;2.83;2.65;;;;;;;;;;5037482;28;20354;-28
2023/09/09 09:51:59;;;;;;;3.15;2.95;;;;;;;;;;5037811;28;20031;-27
2023/09/09 09:54:25;;;;;;;2.63;2.42;;;;;;;;;;5037654;28;20105;-26
2023/09/09 09:56:52;;;;;;;3.20;3.00;;;;;;;;;;5037341;28;20479;-29
2023/09/09 09:59:20;;;;;;;3.53;3.22;;;;;;;;;;5037293;28;20037;-26
2023/09/09 10:01:48;;;;;;;2.88;2.67;;;;;;;;;;5037400;28;20171;-27
2023/09/09 10:04:17;;;;;;;3.08;2.88;;;;;;;;;;5016030;28;20188;-27
2023/09/09 10:06:45;;;;;;;3.28;3.08;;;;;;;;;;5017123;28;20029;-28
2023/09/09 10:09:19;;;;;;;4.35;4.05;;;;;;;;;;5017265;28;20041;-28
2023/09/09 10:11:54;;;;;;;3.92;3.63;;;;;;;;;;5017250;28;20026;-29
2023/09/09 10:14:23;;;;;;;4.20;3.92;;;;;;;;;;5017592;28;20022;-27
2023/09/09 10:16:52;;;;;;;4.63;4.32;;;;;;;;;;5017506;28;20018;-29
2023/09/09 10:19:18;;;;;;;3.38;3.17;;;;;;;;;;5017225;28;20101;-27
2023/09/09 10:21:45;;;;;;;3.50;3.22;;;;;;;;;;5017030;28;20475;-29
2023/09/09 10:24:11;;;;;;;3.63;3.42;;;;;;;;;;5017626;28;20480;-29
2023/09/09 10:26:38;;;;;;;3.60;3.40;;;;;;;;;;5016755;28;20021;-27
2023/09/09 10:29:04;;;;;;;3.58;3.38;;;;;;;;;;5016654;28;20475;-27
2023/09/09 10:31:31;;;;;;;3.67;3.47;;;;;;;;;;5016942;28;20361;-28
2023/09/09 10:33:57;;;;;;;3.28;3.08;;;;;;;;;;5016840;28;20129;-28
2023/09/09 10:36:27;;;;;;;3.30;3.10;;;;;;;;;;5016596;28;20022;-26
2023/09/09 10:38:56;;;;;;;3.30;3.10;;;;;;;;;;5016779;28;20033;-29
2023/09/09 10:41:22;;;;;;;3.55;3.35;;;;;;;;;;5016432;28;20101;-26
2023/09/09 10:43:48;;;;;;;3.75;3.55;;;;;;;;;;5016335;28;20109;-26
2023/09/09 10:46:15;;;;;;;3.70;3.50;;;;;;;;;;5015951;28;20034;-25
2023/09/09 10:48:44;;;;;;;4.05;3.80;;;;;;;;;;5016756;28;20049;-28
2023/09/09 10:51:13;;;;;;;4.55;4.25;;;;;;;;;;5016277;28;20022;-27
2023/09/09 10:53:39;;;;;;;4.28;3.97;;;;;;;;;;5016208;28;20361;-28
2023/09/09 10:56:17;;;;;;;4.15;3.95;;;;;;;;;;5016450;28;20033;-29
2023/09/09 10:58:47;;;;;;;3.33;3.13;;;;;;;;;;5016432;28;20026;-28
2023/09/09 11:01:26;;;;;;;3.72;3.53;;;;;;;;;;5016028;28;20401;-26
2023/09/09 11:03:52;;;;;;;3.92;3.63;;;;;;;;;;5019075;28;20105;-29
2023/09/09 11:06:25;;;;;;;4.03;3.72;;;;;;;;;;5035819;28;20026;-28
2023/09/09 11:08:55;;;;;;;4.22;4.03;;;;;;;;;;5035849;28;20396;-29
2023/09/09 11:11:26;;;;;;;3.58;3.38;;;;;;;;;;5035676;28;20045;-25
2023/09/09 11:13:53;;;;;;;4.25;3.95;;;;;;;;;;5035438;28;20445;-25
2023/09/09 11:16:35;;;;;;;3.55;3.35;;;;;;;;;;5035846;28;20017;-25
2023/09/09 11:19:08;;;;;;;3.97;3.45;;;;;;;;;;5035830;28;20029;-27
2023/09/09 11:21:35;;;;;;;4.03;3.83;;;;;;;;;;5035471;28;20044;-29
2023/09/09 11:24:02;;;;;;;3.90;3.60;;;;;;;;;;5035323;28;20034;-28
2023/09/09 11:26:29;;;;;;;4.10;3.90;;;;;;;;;;5035421;28;20025;-25
2023/09/09 11:28:55;;;;;;;3.53;3.33;;;;;;;;;;5035222;28;20028;-28
2023/09/09 11:31:22;;;;;;;4.15;3.85;;;;;;;;;;5035315;28;20039;-28
2023/09/09 11:33:48;;;;;;;3.65;3.45;;;;;;;;;;5035402;28;20071;-28
2023/09/09 11:36:16;;;;;;;3.40;3.20;;;;;;;;;;5035231;28;20021;-29
2023/09/09 11:38:43;;;;;;;4.03;3.83;;;;;;;;;;5035101;28;20037;-28
2023/09/09 11:41:09;;;;;;;4.10;3.80;;;;;;;;;;5035154;28;20475;-29
2023/09/09 11:43:35;;;;;;;4.35;4.07;;;;;;;;;;5034969;28;20121;-28
2023/09/09 11:46:02;;;;;;;4.50;4.20;;;;;;;;;;5035029;28;20104;-27
2023/09/09 11:48:28;;;;;;;5.10;4.80;;;;;;;;;;5034896;28;20028;-28
2023/09/09 11:50:55;;;;;;;4.07;3.88;;;;;;;;;;5035474;28;20022;-26
2023/09/09 11:53:22;;;;;;;3.35;3.15;;;;;;;;;;5035148;28;20040;-27
2023/09/09 11:55:53;;;;;;;3.80;3.55;;;;;;;;;;5034881;28;20114;-26
2023/09/09 11:58:19;;;;;;;3.70;3.50;;;;;;;;;;5034043;28;20461;-25
2023/09/09 12:00:45;;;;;;;3.80;3.60;;;;;;;;;;5034805;28;20029;-27
2023/09/09 12:03:19;;;;;;;4.18;3.88;;;;;;;;;;5034858;28;20368;-27
2023/09/09 12:05:45;;;;;;;4.13;3.90;;;;;;;;;;5034541;28;20049;-28
2023/09/09 12:08:13;;;;;;;4.10;3.90;;;;;;;;;;5035220;28;20044;-24
2023/09/09 12:10:39;;;;;;;3.75;3.55;;;;;;;;;;5034690;28;20022;-26
2023/09/09 12:13:06;;;;;;;3.67;3.47;;;;;;;;;;5034636;28;20053;-26
2023/09/09 12:15:32;;;;;;;3.42;3.22;;;;;;;;;;5034918;28;20378;-26
2023/09/09 12:18:00;;;;;;;4.20;3.90;;;;;;;;;;5034910;28;20036;-27
2023/09/09 12:20:26;;;;;;;3.90;3.65;;;;;;;;;;5034838;28;20026;-26
2023/09/09 12:22:52;;;;;;;4.60;4.30;;;;;;;;;;5034759;28;20053;-27
2023/09/09 12:25:32;;;;;;;4.43;4.13;;;;;;;;;;5034480;28;20025;-27
2023/09/09 12:27:58;;;;;;;3.63;3.42;;;;;;;;;;5034713;28;20030;-27
2023/09/09 12:30:35;;;;;;;3.03;2.90;;;;;;;;;;5034774;28;20021;-29
2023/09/09 12:33:11;;;;;;;3.40;3.20;;;;;;;;;;5034740;28;20081;-28
2023/09/09 12:35:38;;;;;;;4.03;3.83;;;;;;;;;;5034454;28;20087;-26
2023/09/09 12:38:05;;;;;;;3.75;3.55;;;;;;;;;;5034690;28;20349;-26
2023/09/09 12:40:45;;;;;;;4.75;4.45;;;;;;;;;;5034653;28;20040;-25
2023/09/09 12:43:11;;;;;;;3.72;3.53;;;;;;;;;;5034359;28;20033;-25
2023/09/09 12:45:50;;;;;;;3.97;3.78;;;;;;;;;;5034613;28;20029;-29
2023/09/09 12:48:17;;;;;;;3.80;3.60;;;;;;;;;;5034539;28;20087;-25
2023/09/09 12:50:43;;;;;;;3.70;3.40;;;;;;;;;;5034572;28;20022;-26
2023/09/09 12:53:10;;;;;;;3.42;3.22;;;;;;;;;;5034215;28;20360;-26
2023/09/09 12:55:36;;;;;;;3.83;3.63;;;;;;;;;;5034256;28;20022;-30
2023/09/09 12:58:02;;;;;;;3.20;3.00;;;;;;;;;;5034203;28;20072;-28
2023/09/09 13:00:29;;;;;;;4.05;3.85;;;;;;;;;;5034804;28;20088;-29
2023/09/09 13:02:55;;;;;;;3.72;3.53;;;;;;;;;;5034038;28;20025;-27
2023/09/09 13:05:21;;;;;;;4.25;4.03;;;;;;;;;;5034544;28;20049;-28
2023/09/09 13:07:50;;;;;;;3.85;3.65;;;;;;;;;;5034350;28;20021;-28
2023/09/09 13:10:16;;;;;;;4.13;3.83;;;;;;;;;;5035972;28;20021;-27
2023/09/09 13:12:42;;;;;;;3.05;2.95;;;;;;;;;;5037914;28;20053;-27
2023/09/09 13:15:09;;;;;;;4.88;4.57;;;;;;;;;;5038198;28;20049;-28
2023/09/09 13:17:35;;;;;;;3.67;3.45;;;;;;;;;;5037804;28;20033;-28
2023/09/09 13:20:01;;;;;;;3.25;3.05;;;;;;;;;;5037794;28;20029;-27
2023/09/09 13:22:27;;;;;;;4.03;3.83;;;;;;;;;;5037667;28;20099;-26
2023/09/09 13:24:53;;;;;;;3.40;3.20;;;;;;;;;;5037928;28;20029;-24
2023/09/09 13:27:19;;;;;;;3.90;3.70;;;;;;;;;;5037561;28;20041;-27
2023/09/09 13:29:45;;;;;;;3.65;3.45;;;;;;;;;;5020174;28;20484;-29
2023/09/09 13:32:11;;;;;;;3.60;3.40;;;;;;;;;;5037495;28;20075;-28
2023/09/09 13:34:37;;;;;;;4.53;4.13;;;;;;;;;;5037497;28;20108;-27
2023/09/09 13:37:04;;;;;;;4.18;3.92;;;;;;;;;;5037461;28;20093;-28
2023/09/09 13:39:30;;;;;;;4.00;3.80;;;;;;;;;;5019986;28;20045;-27
2023/09/09 13:41:56;;;;;;;3.53;3.33;;;;;;;;;;5037529;28;20022;-27
2023/09/09 13:44:23;;;;;;;3.40;3.20;;;;;;;;;;5037344;28;20029;-28
2023/09/09 13:46:49;;;;;;;3.75;3.55;;;;;;;;;;5037498;28;20030;-27
2023/09/09 13:49:15;;;;;;;5.07;4.55;;;;;;;;;;5037472;28;20037;-27
2023/09/09 13:51:41;;;;;;;4.07;3.88;;;;;;;;;;5037439;28;20248;-28
2023/09/09 13:54:07;;;;;;;3.75;3.55;;;;;;;;;;5037088;28;20026;-26
2023/09/09 13:56:33;;;;;;;3.60;3.40;;;;;;;;;;5037348;28;20025;-28
2023/09/09 13:59:00;;;;;;;3.20;3.00;;;;;;;;;;5037064;28;20021;-26
2023/09/09 14:01:26;;;;;;;3.95;3.75;;;;;;;;;;5037062;28;20056;-27
2023/09/09 14:03:53;;;;;;;3.97;3.78;;;;;;;;;;5036638;28;20033;-27
2023/09/09 14:06:19;;;;;;;3.90;3.60;;;;;;;;;;5037289;28;20022;-26
2023/09/09 14:08:45;;;;;;;4.13;3.83;;;;;;;;;;5036835;28;20104;-27
2023/09/09 14:11:11;;;;;;;3.97;3.78;;;;;;;;;;5037420;28;20064;-26
2023/09/09 14:13:37;;;;;;;3.50;3.30;;;;;;;;;;5036766;28;20025;-28
2023/09/09 14:16:05;;;;;;;4.20;4.00;;;;;;;;;;5036760;28;20078;-26
2023/09/09 14:18:31;;;;;;;3.70;3.50;;;;;;;;;;5036669;28;20203;-29
2023/09/09 14:20:57;;;;;;;3.95;3.75;;;;;;;;;;5036286;28;20334;-28
2023/09/09 14:23:23;;;;;;;3.55;3.35;;;;;;;;;;5036661;28;20029;-27
2023/09/09 14:25:50;;;;;;;3.53;3.33;;;;;;;;;;5036589;28;20360;-27
2023/09/09 14:28:16;;;;;;;3.55;3.35;;;;;;;;;;5036438;28;20032;-27
2023/09/09 14:30:48;;;;;;;3.65;3.45;;;;;;;;;;5036488;28;20035;-26
2023/09/09 14:33:14;;;;;;;3.92;3.72;;;;;;;;;;5036668;28;20025;-26
2023/09/09 14:35:40;;;;;;;4.20;3.90;;;;;;;;;;5037112;28;20045;-29
2023/09/09 14:38:06;;;;;;;3.70;3.50;;;;;;;;;;5036913;28;20064;-27
2023/09/09 14:40:32;;;;;;;3.75;3.55;;;;;;;;;;5036331;28;20045;-28
2023/09/09 14:42:58;;;;;;;4.00;3.80;;;;;;;;;;5036396;28;20109;-30